sensor_id;sensor_type;location;lat;lon;timestamp;pressure;altitude;pressure_sealevel;temperature
4421;BMP180;11824;51.178;13.546;2023-05-27T00:00:20;101416.00;;;10.00
4421;BMP180;11824;51.178;13.546;2023-05-27T00:02:48;101422.00;;;10.00
4421;BMP180;11824;51.178;13.546;2023-05-27T00:05:16;101418.00;;;9.90
4421;BMP180;11824;51.178;13.546;2023-05-27T00:07:45;101422.00;;;9.90
4421;BMP180;11824;51.178;13.546;2023-05-27T00:10:13;101420.00;;;9.90
4421;BMP180;11824;51.178;13.546;2023-05-27T00:12:40;101408.00;;;9.90
4421;BMP180;11824;51.178;13.546;2023-05-27T00:15:08;101403.00;;;9.80
4421;BMP180;11824;51.178;13.546;2023-05-27T00:17:36;101409.00;;;9.80
4421;BMP180;11824;51.178;13.546;2023-05-27T00:20:04;101408.00;;;9.80
4421;BMP180;11824;51.178;13.546;2023-05-27T00:22:47;101408.00;;;9.80
4421;BMP180;11824;51.178;13.546;2023-05-27T00:25:16;101419.00;;;9.70
4421;BMP180;11824;51.178;13.546;2023-05-27T00:27:47;101412.00;;;9.70
4421;BMP180;11824;51.178;13.546;2023-05-27T00:30:14;101415.00;;;9.70
4421;BMP180;11824;51.178;13.546;2023-05-27T00:32:42;101407.00;;;9.60
4421;BMP180;11824;51.178;13.546;2023-05-27T00:35:10;101405.00;;;9.60
4421;BMP180;11824;51.178;13.546;2023-05-27T00:37:38;101419.00;;;9.60
4421;BMP180;11824;51.178;13.546;2023-05-27T00:40:11;101411.00;;;9.50
4421;BMP180;11824;51.178;13.546;2023-05-27T00:42:39;101409.00;;;9.50
4421;BMP180;11824;51.178;13.546;2023-05-27T00:45:08;101413.00;;;9.50
4421;BMP180;11824;51.178;13.546;2023-05-27T00:47:35;101410.00;;;9.40
4421;BMP180;11824;51.178;13.546;2023-05-27T00:50:04;101420.00;;;9.40
4421;BMP180;11824;51.178;13.546;2023-05-27T00:52:34;101413.00;;;9.40
4421;BMP180;11824;51.178;13.546;2023-05-27T00:55:02;101416.00;;;9.40
4421;BMP180;11824;51.178;13.546;2023-05-27T00:57:30;101414.00;;;9.30
4421;BMP180;11824;51.178;13.546;2023-05-27T00:59:58;101417.00;;;9.30
4421;BMP180;11824;51.178;13.546;2023-05-27T01:02:26;101420.00;;;9.30
4421;BMP180;11824;51.178;13.546;2023-05-27T01:04:54;101415.00;;;9.20
4421;BMP180;11824;51.178;13.546;2023-05-27T01:07:25;101423.00;;;9.20
4421;BMP180;11824;51.178;13.546;2023-05-27T01:10:05;101418.00;;;9.20
4421;BMP180;11824;51.178;13.546;2023-05-27T01:12:39;101410.00;;;9.10
4421;BMP180;11824;51.178;13.546;2023-05-27T01:15:09;101419.00;;;9.10
4421;BMP180;11824;51.178;13.546;2023-05-27T01:17:37;101414.00;;;9.10
4421;BMP180;11824;51.178;13.546;2023-05-27T01:20:10;101414.00;;;9.00
4421;BMP180;11824;51.178;13.546;2023-05-27T01:22:39;101417.00;;;9.00
4421;BMP180;11824;51.178;13.546;2023-05-27T01:25:09;101411.00;;;8.90
4421;BMP180;11824;51.178;13.546;2023-05-27T01:27:36;101416.00;;;8.90
4421;BMP180;11824;51.178;13.546;2023-05-27T01:30:08;101410.00;;;8.90
4421;BMP180;11824;51.178;13.546;2023-05-27T01:32:41;101405.00;;;8.80
4421;BMP180;11824;51.178;13.546;2023-05-27T01:35:14;101404.00;;;8.70
4421;BMP180;11824;51.178;13.546;2023-05-27T01:37:45;101402.00;;;8.70
4421;BMP180;11824;51.178;13.546;2023-05-27T01:40:14;101410.00;;;8.60
4421;BMP180;11824;51.178;13.546;2023-05-27T01:42:42;101403.00;;;8.60
4421;BMP180;11824;51.178;13.546;2023-05-27T01:45:11;101404.00;;;8.60
4421;BMP180;11824;51.178;13.546;2023-05-27T01:47:39;101396.00;;;8.50
4421;BMP180;11824;51.178;13.546;2023-05-27T01:50:08;101389.00;;;8.50
4421;BMP180;11824;51.178;13.546;2023-05-27T01:52:35;101387.00;;;8.50
4421;BMP180;11824;51.178;13.546;2023-05-27T01:55:04;101393.00;;;8.50
4421;BMP180;11824;51.178;13.546;2023-05-27T01:57:32;101391.00;;;8.40
4421;BMP180;11824;51.178;13.546;2023-05-27T01:59:59;101392.00;;;8.40
4421;BMP180;11824;51.178;13.546;2023-05-27T02:02:27;101391.00;;;8.30
4421;BMP180;11824;51.178;13.546;2023-05-27T02:04:55;101388.00;;;8.30
4421;BMP180;11824;51.178;13.546;2023-05-27T02:07:22;101392.00;;;8.30
4421;BMP180;11824;51.178;13.546;2023-05-27T02:09:51;101397.00;;;8.20
4421;BMP180;11824;51.178;13.546;2023-05-27T02:12:19;101394.00;;;8.20
4421;BMP180;11824;51.178;13.546;2023-05-27T02:14:47;101382.00;;;8.20
4421;BMP180;11824;51.178;13.546;2023-05-27T02:17:15;101384.00;;;8.10
4421;BMP180;11824;51.178;13.546;2023-05-27T02:19:46;101379.00;;;8.10
4421;BMP180;11824;51.178;13.546;2023-05-27T02:22:14;101377.00;;;8.00
4421;BMP180;11824;51.178;13.546;2023-05-27T02:24:41;101376.00;;;8.00
4421;BMP180;11824;51.178;13.546;2023-05-27T02:27:09;101376.00;;;8.00
4421;BMP180;11824;51.178;13.546;2023-05-27T02:29:37;101380.00;;;8.00
4421;BMP180;11824;51.178;13.546;2023-05-27T02:32:05;101378.00;;;7.90
4421;BMP180;11824;51.178;13.546;2023-05-27T02:34:33;101383.00;;;7.90
4421;BMP180;11824;51.178;13.546;2023-05-27T02:37:04;101376.00;;;7.90
4421;BMP180;11824;51.178;13.546;2023-05-27T02:39:31;101383.00;;;7.80
4421;BMP180;11824;51.178;13.546;2023-05-27T02:41:58;101380.00;;;7.80
4421;BMP180;11824;51.178;13.546;2023-05-27T02:44:26;101376.00;;;7.80
4421;BMP180;11824;51.178;13.546;2023-05-27T02:46:54;101381.00;;;7.70
4421;BMP180;11824;51.178;13.546;2023-05-27T02:49:22;101383.00;;;7.70
4421;BMP180;11824;51.178;13.546;2023-05-27T02:51:49;101377.00;;;7.70
4421;BMP180;11824;51.178;13.546;2023-05-27T02:54:17;101380.00;;;7.70
4421;BMP180;11824;51.178;13.546;2023-05-27T02:56:45;101385.00;;;7.60
4421;BMP180;11824;51.178;13.546;2023-05-27T02:59:13;101383.00;;;7.60
4421;BMP180;11824;51.178;13.546;2023-05-27T03:01:40;101382.00;;;7.60
4421;BMP180;11824;51.178;13.546;2023-05-27T03:04:08;101389.00;;;7.60
4421;BMP180;11824;51.178;13.546;2023-05-27T03:06:36;101388.00;;;7.60
4421;BMP180;11824;51.178;13.546;2023-05-27T03:09:04;101384.00;;;7.60
4421;BMP180;11824;51.178;13.546;2023-05-27T03:11:32;101387.00;;;7.60
4421;BMP180;11824;51.178;13.546;2023-05-27T03:13:59;101389.00;;;7.60
4421;BMP180;11824;51.178;13.546;2023-05-27T03:16:27;101387.00;;;7.60
4421;BMP180;11824;51.178;13.546;2023-05-27T03:18:55;101392.00;;;7.60
4421;BMP180;11824;51.178;13.546;2023-05-27T03:21:23;101395.00;;;7.60
4421;BMP180;11824;51.178;13.546;2023-05-27T03:23:51;101391.00;;;7.60
4421;BMP180;11824;51.178;13.546;2023-05-27T03:26:19;101395.00;;;7.70
4421;BMP180;11824;51.178;13.546;2023-05-27T03:28:46;101383.00;;;7.70
4421;BMP180;11824;51.178;13.546;2023-05-27T03:31:14;101389.00;;;7.70
4421;BMP180;11824;51.178;13.546;2023-05-27T03:33:42;101394.00;;;7.80
4421;BMP180;11824;51.178;13.546;2023-05-27T03:36:10;101384.00;;;7.80
4421;BMP180;11824;51.178;13.546;2023-05-27T03:38:38;101391.00;;;7.90
4421;BMP180;11824;51.178;13.546;2023-05-27T03:41:06;101382.00;;;7.90
4421;BMP180;11824;51.178;13.546;2023-05-27T03:43:36;101388.00;;;8.00
4421;BMP180;11824;51.178;13.546;2023-05-27T03:46:04;101393.00;;;8.10
4421;BMP180;11824;51.178;13.546;2023-05-27T03:48:31;101396.00;;;8.10
4421;BMP180;11824;51.178;13.546;2023-05-27T03:50:59;101399.00;;;8.20
4421;BMP180;11824;51.178;13.546;2023-05-27T03:53:26;101398.00;;;8.20
4421;BMP180;11824;51.178;13.546;2023-05-27T03:55:54;101404.00;;;8.30
4421;BMP180;11824;51.178;13.546;2023-05-27T03:58:22;101396.00;;;8.40
4421;BMP180;11824;51.178;13.546;2023-05-27T04:00:49;101399.00;;;8.50
4421;BMP180;11824;51.178;13.546;2023-05-27T04:03:18;101404.00;;;8.60
4421;BMP180;11824;51.178;13.546;2023-05-27T04:05:46;101399.00;;;8.70
4421;BMP180;11824;51.178;13.546;2023-05-27T04:08:13;101408.00;;;8.80
4421;BMP180;11824;51.178;13.546;2023-05-27T04:10:41;101399.00;;;8.90
4421;BMP180;11824;51.178;13.546;2023-05-27T04:13:09;101402.00;;;9.10
4421;BMP180;11824;51.178;13.546;2023-05-27T04:15:36;101403.00;;;9.40
4421;BMP180;11824;51.178;13.546;2023-05-27T04:18:04;101396.00;;;9.60
4421;BMP180;11824;51.178;13.546;2023-05-27T04:20:36;101415.00;;;9.90
4421;BMP180;11824;51.178;13.546;2023-05-27T04:23:04;101405.00;;;10.20
4421;BMP180;11824;51.178;13.546;2023-05-27T04:25:31;101407.00;;;10.50
4421;BMP180;11824;51.178;13.546;2023-05-27T04:27:59;101411.00;;;10.80
4421;BMP180;11824;51.178;13.546;2023-05-27T04:30:27;101411.00;;;11.20
4421;BMP180;11824;51.178;13.546;2023-05-27T04:32:54;101404.00;;;11.60
4421;BMP180;11824;51.178;13.546;2023-05-27T04:35:24;101411.00;;;12.30
4421;BMP180;11824;51.178;13.546;2023-05-27T04:37:52;101416.00;;;13.00
4421;BMP180;11824;51.178;13.546;2023-05-27T04:40:19;101414.00;;;13.70
4421;BMP180;11824;51.178;13.546;2023-05-27T04:42:47;101425.00;;;14.40
4421;BMP180;11824;51.178;13.546;2023-05-27T04:45:14;101420.00;;;15.10
4421;BMP180;11824;51.178;13.546;2023-05-27T04:47:43;101433.00;;;15.70
4421;BMP180;11824;51.178;13.546;2023-05-27T04:50:14;101434.00;;;16.30
4421;BMP180;11824;51.178;13.546;2023-05-27T04:52:41;101434.00;;;16.90
4421;BMP180;11824;51.178;13.546;2023-05-27T04:55:10;101438.00;;;17.50
4421;BMP180;11824;51.178;13.546;2023-05-27T04:57:37;101434.00;;;18.00
4421;BMP180;11824;51.178;13.546;2023-05-27T05:00:08;101434.00;;;18.50
4421;BMP180;11824;51.178;13.546;2023-05-27T05:02:51;101439.00;;;19.00
4421;BMP180;11824;51.178;13.546;2023-05-27T05:05:28;101438.00;;;19.40
4421;BMP180;11824;51.178;13.546;2023-05-27T05:07:56;101446.00;;;19.80
4421;BMP180;11824;51.178;13.546;2023-05-27T05:10:23;101447.00;;;20.20
4421;BMP180;11824;51.178;13.546;2023-05-27T05:12:50;101447.00;;;20.60
4421;BMP180;11824;51.178;13.546;2023-05-27T05:15:18;101453.00;;;21.00
4421;BMP180;11824;51.178;13.546;2023-05-27T05:17:46;101454.00;;;21.40
4421;BMP180;11824;51.178;13.546;2023-05-27T05:20:14;101458.00;;;21.70
4421;BMP180;11824;51.178;13.546;2023-05-27T05:22:41;101451.00;;;22.00
4421;BMP180;11824;51.178;13.546;2023-05-27T05:25:09;101454.00;;;22.40
4421;BMP180;11824;51.178;13.546;2023-05-27T05:27:36;101453.00;;;22.70
4421;BMP180;11824;51.178;13.546;2023-05-27T05:30:05;101457.00;;;23.00
4421;BMP180;11824;51.178;13.546;2023-05-27T05:32:33;101455.00;;;23.30
4421;BMP180;11824;51.178;13.546;2023-05-27T05:35:00;101458.00;;;23.60
4421;BMP180;11824;51.178;13.546;2023-05-27T05:37:28;101463.00;;;23.80
4421;BMP180;11824;51.178;13.546;2023-05-27T05:39:56;101470.00;;;24.00
4421;BMP180;11824;51.178;13.546;2023-05-27T05:42:23;101477.00;;;24.00
4421;BMP180;11824;51.178;13.546;2023-05-27T05:44:52;101474.00;;;24.00
4421;BMP180;11824;51.178;13.546;2023-05-27T05:47:19;101478.00;;;24.00
4421;BMP180;11824;51.178;13.546;2023-05-27T05:49:47;101481.00;;;24.10
4421;BMP180;11824;51.178;13.546;2023-05-27T05:52:14;101478.00;;;24.10
4421;BMP180;11824;51.178;13.546;2023-05-27T05:54:43;101477.00;;;24.10
4421;BMP180;11824;51.178;13.546;2023-05-27T05:57:10;101482.00;;;24.10
4421;BMP180;11824;51.178;13.546;2023-05-27T05:59:40;101478.00;;;24.20
4421;BMP180;11824;51.178;13.546;2023-05-27T06:02:08;101480.00;;;24.30
4421;BMP180;11824;51.178;13.546;2023-05-27T06:04:35;101483.00;;;24.40
4421;BMP180;11824;51.178;13.546;2023-05-27T06:07:06;101486.00;;;24.40
4421;BMP180;11824;51.178;13.546;2023-05-27T06:09:34;101483.00;;;24.40
4421;BMP180;11824;51.178;13.546;2023-05-27T06:12:04;101494.00;;;24.30
4421;BMP180;11824;51.178;13.546;2023-05-27T06:14:32;101494.00;;;24.10
4421;BMP180;11824;51.178;13.546;2023-05-27T06:17:00;101490.00;;;24.00
4421;BMP180;11824;51.178;13.546;2023-05-27T06:19:28;101496.00;;;24.00
4421;BMP180;11824;51.178;13.546;2023-05-27T06:21:56;101491.00;;;24.00
4421;BMP180;11824;51.178;13.546;2023-05-27T06:24:26;101495.00;;;24.20
4421;BMP180;11824;51.178;13.546;2023-05-27T06:26:54;101503.00;;;24.20
4421;BMP180;11824;51.178;13.546;2023-05-27T06:29:23;101499.00;;;24.30
4421;BMP180;11824;51.178;13.546;2023-05-27T06:31:51;101498.00;;;24.30
4421;BMP180;11824;51.178;13.546;2023-05-27T06:34:21;101492.00;;;24.10
4421;BMP180;11824;51.178;13.546;2023-05-27T06:36:51;101500.00;;;24.00
4421;BMP180;11824;51.178;13.546;2023-05-27T06:39:18;101501.00;;;24.00
4421;BMP180;11824;51.178;13.546;2023-05-27T06:41:48;101499.00;;;24.10
4421;BMP180;11824;51.178;13.546;2023-05-27T06:44:15;101496.00;;;24.10
4421;BMP180;11824;51.178;13.546;2023-05-27T06:46:44;101502.00;;;24.10
4421;BMP180;11824;51.178;13.546;2023-05-27T06:49:12;101495.00;;;24.00
4421;BMP180;11824;51.178;13.546;2023-05-27T06:51:39;101485.00;;;23.80
4421;BMP180;11824;51.178;13.546;2023-05-27T06:54:06;101483.00;;;23.70
4421;BMP180;11824;51.178;13.546;2023-05-27T06:56:35;101481.00;;;23.50
4421;BMP180;11824;51.178;13.546;2023-05-27T06:59:03;101481.00;;;23.20
4421;BMP180;11824;51.178;13.546;2023-05-27T07:01:31;101476.00;;;22.90
4421;BMP180;11824;51.178;13.546;2023-05-27T07:04:00;101484.00;;;22.80
4421;BMP180;11824;51.178;13.546;2023-05-27T07:06:28;101469.00;;;22.60
4421;BMP180;11824;51.178;13.546;2023-05-27T07:08:56;101481.00;;;22.30
4421;BMP180;11824;51.178;13.546;2023-05-27T07:11:23;101489.00;;;21.90
4421;BMP180;11824;51.178;13.546;2023-05-27T07:13:53;101480.00;;;21.50
4421;BMP180;11824;51.178;13.546;2023-05-27T07:16:23;101470.00;;;21.10
4421;BMP180;11824;51.178;13.546;2023-05-27T07:18:51;101469.00;;;20.70
4421;BMP180;11824;51.178;13.546;2023-05-27T07:21:19;101474.00;;;20.30
4421;BMP180;11824;51.178;13.546;2023-05-27T07:23:48;101465.00;;;20.00
4421;BMP180;11824;51.178;13.546;2023-05-27T07:26:15;101467.00;;;19.70
4421;BMP180;11824;51.178;13.546;2023-05-27T07:28:45;101466.00;;;19.60
4421;BMP180;11824;51.178;13.546;2023-05-27T07:31:13;101461.00;;;19.50
4421;BMP180;11824;51.178;13.546;2023-05-27T07:33:40;101475.00;;;19.30
4421;BMP180;11824;51.178;13.546;2023-05-27T07:36:08;101467.00;;;19.10
4421;BMP180;11824;51.178;13.546;2023-05-27T07:38:37;101461.00;;;19.00
4421;BMP180;11824;51.178;13.546;2023-05-27T07:41:04;101475.00;;;18.80
4421;BMP180;11824;51.178;13.546;2023-05-27T07:43:32;101460.00;;;18.70
4421;BMP180;11824;51.178;13.546;2023-05-27T07:45:59;101464.00;;;18.40
4421;BMP180;11824;51.178;13.546;2023-05-27T07:48:28;101459.00;;;18.20
4421;BMP180;11824;51.178;13.546;2023-05-27T07:50:55;101462.00;;;18.10
4421;BMP180;11824;51.178;13.546;2023-05-27T07:53:22;101464.00;;;18.00
4421;BMP180;11824;51.178;13.546;2023-05-27T07:55:51;101459.00;;;18.00
4421;BMP180;11824;51.178;13.546;2023-05-27T07:58:18;101460.00;;;18.00
4421;BMP180;11824;51.178;13.546;2023-05-27T08:00:46;101457.00;;;17.90
4421;BMP180;11824;51.178;13.546;2023-05-27T08:03:13;101451.00;;;17.80
4421;BMP180;11824;51.178;13.546;2023-05-27T08:05:41;101450.00;;;17.70
4421;BMP180;11824;51.178;13.546;2023-05-27T08:08:09;101447.00;;;17.70
4421;BMP180;11824;51.178;13.546;2023-05-27T08:10:37;101450.00;;;17.70
4421;BMP180;11824;51.178;13.546;2023-05-27T08:13:09;101445.00;;;17.70
4421;BMP180;11824;51.178;13.546;2023-05-27T08:15:36;101429.00;;;17.70
4421;BMP180;11824;51.178;13.546;2023-05-27T08:18:04;101432.00;;;17.70
4421;BMP180;11824;51.178;13.546;2023-05-27T08:20:32;101417.00;;;17.70
4421;BMP180;11824;51.178;13.546;2023-05-27T08:23:00;101421.00;;;17.80
4421;BMP180;11824;51.178;13.546;2023-05-27T08:25:27;101433.00;;;17.80
4421;BMP180;11824;51.178;13.546;2023-05-27T08:27:55;101419.00;;;17.80
4421;BMP180;11824;51.178;13.546;2023-05-27T08:30:29;101417.00;;;17.80
4421;BMP180;11824;51.178;13.546;2023-05-27T08:32:56;101420.00;;;17.70
4421;BMP180;11824;51.178;13.546;2023-05-27T08:35:25;101408.00;;;17.70
4421;BMP180;11824;51.178;13.546;2023-05-27T08:37:52;101423.00;;;17.70
4421;BMP180;11824;51.178;13.546;2023-05-27T08:40:19;101415.00;;;17.70
4421;BMP180;11824;51.178;13.546;2023-05-27T08:42:51;101419.00;;;17.60
4421;BMP180;11824;51.178;13.546;2023-05-27T08:45:20;101426.00;;;17.60
4421;BMP180;11824;51.178;13.546;2023-05-27T08:47:50;101410.00;;;17.50
4421;BMP180;11824;51.178;13.546;2023-05-27T08:50:19;101401.00;;;17.40
4421;BMP180;11824;51.178;13.546;2023-05-27T08:52:50;101398.00;;;17.50
4421;BMP180;11824;51.178;13.546;2023-05-27T08:55:21;101391.00;;;17.50
4421;BMP180;11824;51.178;13.546;2023-05-27T08:57:51;101390.00;;;17.60
4421;BMP180;11824;51.178;13.546;2023-05-27T09:00:19;101383.00;;;17.60
4421;BMP180;11824;51.178;13.546;2023-05-27T09:02:48;101390.00;;;17.60
4421;BMP180;11824;51.178;13.546;2023-05-27T09:05:16;101383.00;;;17.60
4421;BMP180;11824;51.178;13.546;2023-05-27T09:07:44;101380.00;;;17.60
4421;BMP180;11824;51.178;13.546;2023-05-27T09:10:12;101380.00;;;17.50
4421;BMP180;11824;51.178;13.546;2023-05-27T09:12:43;101376.00;;;17.50
4421;BMP180;11824;51.178;13.546;2023-05-27T09:15:11;101372.00;;;17.50
4421;BMP180;11824;51.178;13.546;2023-05-27T09:17:41;101369.00;;;17.60
4421;BMP180;11824;51.178;13.546;2023-05-27T09:20:10;101369.00;;;17.60
4421;BMP180;11824;51.178;13.546;2023-05-27T09:22:39;101369.00;;;17.60
4421;BMP180;11824;51.178;13.546;2023-05-27T09:25:08;101372.00;;;17.60
4421;BMP180;11824;51.178;13.546;2023-05-27T09:27:37;101367.00;;;17.60
4421;BMP180;11824;51.178;13.546;2023-05-27T09:30:08;101360.00;;;17.60
4421;BMP180;11824;51.178;13.546;2023-05-27T09:32:36;101364.00;;;17.60
4421;BMP180;11824;51.178;13.546;2023-05-27T09:35:06;101357.00;;;17.60
4421;BMP180;11824;51.178;13.546;2023-05-27T09:37:36;101358.00;;;17.70
4421;BMP180;11824;51.178;13.546;2023-05-27T09:40:06;101367.00;;;17.80
4421;BMP180;11824;51.178;13.546;2023-05-27T09:42:41;101359.00;;;17.80
4421;BMP180;11824;51.178;13.546;2023-05-27T09:45:12;101360.00;;;17.80
4421;BMP180;11824;51.178;13.546;2023-05-27T09:47:41;101350.00;;;17.90
4421;BMP180;11824;51.178;13.546;2023-05-27T09:50:10;101349.00;;;17.90
4421;BMP180;11824;51.178;13.546;2023-05-27T09:52:42;101339.00;;;17.90
4421;BMP180;11824;51.178;13.546;2023-05-27T09:55:20;101340.00;;;18.00
4421;BMP180;11824;51.178;13.546;2023-05-27T09:57:48;101331.00;;;18.00
4421;BMP180;11824;51.178;13.546;2023-05-27T10:00:18;101331.00;;;18.00
4421;BMP180;11824;51.178;13.546;2023-05-27T10:02:48;101334.00;;;18.00
4421;BMP180;11824;51.178;13.546;2023-05-27T10:05:16;101334.00;;;18.10
4421;BMP180;11824;51.178;13.546;2023-05-27T10:07:47;101329.00;;;18.10
4421;BMP180;11824;51.178;13.546;2023-05-27T10:10:19;101325.00;;;18.20
4421;BMP180;11824;51.178;13.546;2023-05-27T10:13:09;101323.00;;;18.30
4421;BMP180;11824;51.178;13.546;2023-05-27T10:15:37;101317.00;;;18.30
4421;BMP180;11824;51.178;13.546;2023-05-27T10:18:08;101322.00;;;18.30
4421;BMP180;11824;51.178;13.546;2023-05-27T10:20:41;101324.00;;;18.40
4421;BMP180;11824;51.178;13.546;2023-05-27T10:23:13;101322.00;;;18.50
4421;BMP180;11824;51.178;13.546;2023-05-27T10:25:45;101325.00;;;18.50
4421;BMP180;11824;51.178;13.546;2023-05-27T10:28:29;101327.00;;;18.50
4421;BMP180;11824;51.178;13.546;2023-05-27T10:31:06;101319.00;;;18.50
4421;BMP180;11824;51.178;13.546;2023-05-27T10:33:48;101310.00;;;18.50
4421;BMP180;11824;51.178;13.546;2023-05-27T10:36:24;101311.00;;;18.50
4421;BMP180;11824;51.178;13.546;2023-05-27T10:39:11;101312.00;;;18.60
4421;BMP180;11824;51.178;13.546;2023-05-27T10:41:42;101316.00;;;18.70
4421;BMP180;11824;51.178;13.546;2023-05-27T10:44:10;101308.00;;;18.70
4421;BMP180;11824;51.178;13.546;2023-05-27T10:46:40;101310.00;;;18.70
4421;BMP180;11824;51.178;13.546;2023-05-27T10:49:22;101307.00;;;18.70
4421;BMP180;11824;51.178;13.546;2023-05-27T10:52:06;101296.00;;;18.80
4421;BMP180;11824;51.178;13.546;2023-05-27T10:54:44;101289.00;;;18.80
4421;BMP180;11824;51.178;13.546;2023-05-27T10:57:13;101294.00;;;18.80
4421;BMP180;11824;51.178;13.546;2023-05-27T10:59:48;101301.00;;;18.90
4421;BMP180;11824;51.178;13.546;2023-05-27T11:02:18;101300.00;;;18.90
4421;BMP180;11824;51.178;13.546;2023-05-27T11:04:48;101291.00;;;19.00
4421;BMP180;11824;51.178;13.546;2023-05-27T11:07:18;101281.00;;;19.00
4421;BMP180;11824;51.178;13.546;2023-05-27T11:09:49;101274.00;;;19.00
4421;BMP180;11824;51.178;13.546;2023-05-27T11:12:18;101277.00;;;19.00
4421;BMP180;11824;51.178;13.546;2023-05-27T11:14:46;101276.00;;;19.10
4421;BMP180;11824;51.178;13.546;2023-05-27T11:17:14;101273.00;;;19.10
4421;BMP180;11824;51.178;13.546;2023-05-27T11:19:43;101270.00;;;19.10
4421;BMP180;11824;51.178;13.546;2023-05-27T11:22:13;101271.00;;;19.20
4421;BMP180;11824;51.178;13.546;2023-05-27T11:24:41;101267.00;;;19.20
4421;BMP180;11824;51.178;13.546;2023-05-27T11:27:10;101270.00;;;19.30
4421;BMP180;11824;51.178;13.546;2023-05-27T11:29:50;101246.00;;;19.30
4421;BMP180;11824;51.178;13.546;2023-05-27T11:32:18;101256.00;;;19.40
4421;BMP180;11824;51.178;13.546;2023-05-27T11:34:46;101254.00;;;19.40
4421;BMP180;11824;51.178;13.546;2023-05-27T11:37:15;101247.00;;;19.40
4421;BMP180;11824;51.178;13.546;2023-05-27T11:39:50;101245.00;;;19.50
4421;BMP180;11824;51.178;13.546;2023-05-27T11:42:23;101252.00;;;19.50
4421;BMP180;11824;51.178;13.546;2023-05-27T11:44:54;101242.00;;;19.60
4421;BMP180;11824;51.178;13.546;2023-05-27T11:47:22;101252.00;;;19.60
4421;BMP180;11824;51.178;13.546;2023-05-27T11:49:51;101222.00;;;19.60
4421;BMP180;11824;51.178;13.546;2023-05-27T11:52:19;101242.00;;;19.70
4421;BMP180;11824;51.178;13.546;2023-05-27T11:54:50;101231.00;;;19.80
4421;BMP180;11824;51.178;13.546;2023-05-27T11:57:25;101239.00;;;19.80
4421;BMP180;11824;51.178;13.546;2023-05-27T11:59:52;101228.00;;;19.80
4421;BMP180;11824;51.178;13.546;2023-05-27T12:02:20;101229.00;;;19.90
4421;BMP180;11824;51.178;13.546;2023-05-27T12:04:48;101219.00;;;19.90
4421;BMP180;11824;51.178;13.546;2023-05-27T12:07:15;101219.00;;;20.00
4421;BMP180;11824;51.178;13.546;2023-05-27T12:09:47;101209.00;;;20.00
4421;BMP180;11824;51.178;13.546;2023-05-27T12:12:18;101200.00;;;20.00
4421;BMP180;11824;51.178;13.546;2023-05-27T12:14:46;101199.00;;;20.00
4421;BMP180;11824;51.178;13.546;2023-05-27T12:17:14;101187.00;;;20.00
4421;BMP180;11824;51.178;13.546;2023-05-27T12:19:42;101195.00;;;20.10
4421;BMP180;11824;51.178;13.546;2023-05-27T12:22:09;101187.00;;;20.10
4421;BMP180;11824;51.178;13.546;2023-05-27T12:24:37;101188.00;;;20.10
4421;BMP180;11824;51.178;13.546;2023-05-27T12:27:05;101188.00;;;20.10
4421;BMP180;11824;51.178;13.546;2023-05-27T12:29:37;101194.00;;;20.10
4421;BMP180;11824;51.178;13.546;2023-05-27T12:32:05;101188.00;;;20.20
4421;BMP180;11824;51.178;13.546;2023-05-27T12:34:33;101183.00;;;20.20
4421;BMP180;11824;51.178;13.546;2023-05-27T12:37:06;101188.00;;;20.30
4421;BMP180;11824;51.178;13.546;2023-05-27T12:39:37;101183.00;;;20.30
4421;BMP180;11824;51.178;13.546;2023-05-27T12:42:05;101180.00;;;20.40
4421;BMP180;11824;51.178;13.546;2023-05-27T12:44:33;101176.00;;;20.40
4421;BMP180;11824;51.178;13.546;2023-05-27T12:47:02;101168.00;;;20.40
4421;BMP180;11824;51.178;13.546;2023-05-27T12:49:31;101181.00;;;20.50
4421;BMP180;11824;51.178;13.546;2023-05-27T12:51:59;101163.00;;;20.50
4421;BMP180;11824;51.178;13.546;2023-05-27T12:54:30;101159.00;;;20.50
4421;BMP180;11824;51.178;13.546;2023-05-27T12:57:00;101157.00;;;20.50
4421;BMP180;11824;51.178;13.546;2023-05-27T12:59:31;101156.00;;;20.60
4421;BMP180;11824;51.178;13.546;2023-05-27T13:02:03;101160.00;;;20.60
4421;BMP180;11824;51.178;13.546;2023-05-27T13:04:32;101152.00;;;20.60
4421;BMP180;11824;51.178;13.546;2023-05-27T13:07:00;101150.00;;;20.70
4421;BMP180;11824;51.178;13.546;2023-05-27T13:09:28;101148.00;;;20.70
4421;BMP180;11824;51.178;13.546;2023-05-27T13:11:55;101146.00;;;20.80
4421;BMP180;11824;51.178;13.546;2023-05-27T13:14:23;101142.00;;;20.80
4421;BMP180;11824;51.178;13.546;2023-05-27T13:16:51;101145.00;;;20.90
4421;BMP180;11824;51.178;13.546;2023-05-27T13:19:20;101132.00;;;20.90
4421;BMP180;11824;51.178;13.546;2023-05-27T13:21:48;101132.00;;;20.90
4421;BMP180;11824;51.178;13.546;2023-05-27T13:24:15;101137.00;;;20.90
4421;BMP180;11824;51.178;13.546;2023-05-27T13:26:51;101137.00;;;20.90
4421;BMP180;11824;51.178;13.546;2023-05-27T13:29:34;101128.00;;;20.90
4421;BMP180;11824;51.178;13.546;2023-05-27T13:35:48;101129.00;;;20.90
4421;BMP180;11824;51.178;13.546;2023-05-27T13:38:17;101134.00;;;20.90
4421;BMP180;11824;51.178;13.546;2023-05-27T13:40:44;101123.00;;;20.90
4421;BMP180;11824;51.178;13.546;2023-05-27T13:43:12;101122.00;;;21.00
4421;BMP180;11824;51.178;13.546;2023-05-27T13:45:39;101133.00;;;21.00
4421;BMP180;11824;51.178;13.546;2023-05-27T13:48:07;101115.00;;;21.00
4421;BMP180;11824;51.178;13.546;2023-05-27T13:50:36;101103.00;;;20.90
4421;BMP180;11824;51.178;13.546;2023-05-27T13:53:03;101109.00;;;21.00
4421;BMP180;11824;51.178;13.546;2023-05-27T13:55:32;101099.00;;;20.90
4421;BMP180;11824;51.178;13.546;2023-05-27T13:57:59;101103.00;;;21.00
4421;BMP180;11824;51.178;13.546;2023-05-27T14:00:27;101099.00;;;21.00
4421;BMP180;11824;51.178;13.546;2023-05-27T14:02:54;101082.00;;;21.10
4421;BMP180;11824;51.178;13.546;2023-05-27T14:05:22;101088.00;;;21.10
4421;BMP180;11824;51.178;13.546;2023-05-27T14:07:49;101092.00;;;21.10
4421;BMP180;11824;51.178;13.546;2023-05-27T14:10:17;101080.00;;;21.10
4421;BMP180;11824;51.178;13.546;2023-05-27T14:12:45;101079.00;;;21.20